Altheimer, Arkansas
Current Conditions -  °F | °C
As of 10:53 AM on Friday 24 Oct 2014 (Local Time) from KPBF Reporting Station
Clear Clear  
Wind Chill: 63°   Ceiling: Unl
Heat Index: 63°   Visibility: 10mi
Dew Point: 49°   Wind: 3mph
Humidity: 60%   Direction: NA
Pressure: 30.18"   Gusts: NA
Location:  34.32°N, 91.85°W
Report Text: KPBF 241553Z AUTO VRB03KT 10SM CLR 17/09 A3018 RMK AO2 SLP219 T01720094
Loading
Personal Weather Stations






























Interactive Weather Map
Tropical Storm Tracking
New forecast layout! Learn more

10-Day Weather Forecast

Advertisements
Track Severe Weather on mobile